< < Back
Terminal Aerodrome Forecast


Current Version              Previous Versions:   1  2  3  4  5  6  7  8  9  

Terminal Aerodrome Forecast

229
FTUS44 KHUN 301605 AAA
TAFHSV
TAF AMD
KHSV 301605Z 3016/3112 35008KT P6SM SCT050 SCT100
     FM310100 VRB03KT P6SM FEW250=

Latest METAR

572
SAUS80 KWBC 311600
MTRHSV
METAR KHSV 311553Z 18003KT 10SM FEW050 FEW150 31/17 A2998 RMK AO2 SLP141
T03060172


USA.gov is the U.S. government's official web portal to all federal, state and local government web resources and services.